createdAt,value
2019-04-25T08:06:58.049Z,1009.85
2019-04-25T08:07:30.106Z,1009.88
2019-04-25T08:07:58.042Z,1009.87
2019-04-25T08:08:30.109Z,1009.82
2019-04-25T08:09:30.104Z,1009.82
2019-04-25T08:09:59.052Z,1009.85
2019-04-25T08:10:30.006Z,1009.82
2019-04-25T08:11:01.050Z,1009.81
2019-04-25T08:11:58.048Z,1009.82
2019-04-25T08:12:30.484Z,1009.81
2019-04-25T08:12:58.042Z,1009.83
2019-04-25T08:13:30.021Z,1009.80
2019-04-25T08:13:58.045Z,1009.82
2019-04-25T08:14:31.824Z,1009.83
2019-04-25T08:14:58.048Z,1009.81
2019-04-25T08:15:30.108Z,1009.81
2019-04-25T08:15:58.141Z,1009.84
2019-04-25T08:16:28.836Z,1009.81
2019-04-25T08:16:58.046Z,1009.81
2019-04-25T08:17:28.899Z,1009.81
2019-04-25T08:17:58.048Z,1009.84
2019-04-25T08:18:30.110Z,1009.81
2019-04-25T08:18:58.064Z,1009.77
2019-04-25T08:19:29.543Z,1009.76
2019-04-25T08:19:58.046Z,1009.76
2019-04-25T08:20:30.527Z,1009.74
2019-04-25T08:20:58.050Z,1009.77
2019-04-25T08:21:58.040Z,1009.73
2019-04-25T08:22:28.118Z,1009.75
2019-04-25T08:23:00.048Z,1009.77
2019-04-25T08:23:29.031Z,1009.74
2019-04-25T08:23:58.056Z,1009.74
2019-04-25T08:24:28.355Z,1009.74
2019-04-25T08:24:58.042Z,1009.75
2019-04-25T08:25:28.471Z,1009.75
2019-04-25T08:25:58.046Z,1009.75
2019-04-25T08:26:28.760Z,1009.74
2019-04-25T08:26:58.044Z,1009.75
2019-04-25T08:27:28.104Z,1009.76
2019-04-25T08:27:58.046Z,1009.73
2019-04-25T08:28:28.112Z,1009.72
2019-04-25T08:28:59.042Z,1009.74
2019-04-25T08:29:28.117Z,1009.74
2019-04-25T08:29:58.107Z,1009.72
2019-04-25T08:30:29.752Z,1009.71
2019-04-25T08:30:59.242Z,1009.73
2019-04-25T08:31:28.105Z,1009.70
2019-04-25T08:32:02.078Z,1009.70
2019-04-25T08:32:28.116Z,1009.65
2019-04-25T08:32:58.051Z,1009.67
2019-04-25T08:33:29.044Z,1009.66
2019-04-25T08:33:58.049Z,1009.63
2019-04-25T08:34:28.115Z,1009.63
2019-04-25T08:34:58.057Z,1009.62
2019-04-25T08:35:28.121Z,1009.61
2019-04-25T08:36:08.316Z,1009.61
2019-04-25T08:36:28.122Z,1009.59
2019-04-25T08:36:58.189Z,1009.60
2019-04-25T08:37:28.114Z,1009.59
2019-04-25T08:37:58.055Z,1009.58
2019-04-25T08:38:28.114Z,1009.60
2019-04-25T08:38:58.052Z,1009.60
2019-04-25T08:39:28.117Z,1009.58
2019-04-25T08:39:58.048Z,1009.61
2019-04-25T08:40:28.121Z,1009.60
2019-04-25T08:40:58.054Z,1009.61
2019-04-25T08:41:30.045Z,1009.61
2019-04-25T08:41:58.048Z,1009.60
2019-04-25T08:42:31.292Z,1009.59
2019-04-25T08:42:58.056Z,1009.58
2019-04-25T08:43:28.108Z,1009.57
2019-04-25T08:43:58.055Z,1009.60
2019-04-25T08:44:28.114Z,1009.61
2019-04-25T08:44:58.056Z,1009.61
2019-04-25T08:45:28.201Z,1009.60
2019-04-25T08:45:58.053Z,1009.62
2019-04-25T08:46:28.118Z,1009.59
2019-04-25T08:46:58.061Z,1009.57
2019-04-25T08:47:28.116Z,1009.55
2019-04-25T08:47:58.065Z,1009.54
2019-04-25T08:48:28.112Z,1009.57
2019-04-25T08:48:58.054Z,1009.53
2019-04-25T08:50:58.069Z,1009.53
2019-04-25T08:51:28.117Z,1009.54
2019-04-25T08:52:28.111Z,1009.51
2019-04-25T08:53:03.820Z,1009.54
2019-04-25T08:53:28.164Z,1009.53
2019-04-25T08:53:58.095Z,1009.53
2019-04-25T08:54:28.185Z,1009.53
2019-04-25T08:54:59.100Z,1009.53
2019-04-25T08:55:28.172Z,1009.54
2019-04-25T08:55:58.096Z,1009.53
2019-04-25T08:56:28.156Z,1009.54
2019-04-25T08:56:58.099Z,1009.53
2019-04-25T08:57:28.178Z,1009.53
2019-04-25T08:57:59.354Z,1009.51
2019-04-25T08:58:28.158Z,1009.54
2019-04-25T08:59:06.093Z,1009.54
2019-04-25T08:59:39.997Z,1009.53
2019-04-25T09:00:28.165Z,1009.53
2019-04-25T09:01:04.010Z,1009.53
2019-04-25T09:01:28.162Z,1009.54
2019-04-25T09:01:58.100Z,1009.53
2019-04-25T09:02:29.173Z,1009.53
2019-04-25T09:03:32.322Z,1009.52
2019-04-25T09:03:58.104Z,1009.53
2019-04-25T09:04:28.166Z,1009.48
2019-04-25T09:04:58.095Z,1009.51
2019-04-25T09:05:58.159Z,1009.49
2019-04-25T09:06:28.172Z,1009.47
2019-04-25T09:06:58.105Z,1009.47
2019-04-25T09:07:28.164Z,1009.45
2019-04-25T09:08:28.251Z,1009.42
2019-04-25T09:08:58.100Z,1009.42
2019-04-25T09:09:28.160Z,1009.39
2019-04-25T09:09:58.146Z,1009.43
2019-04-25T09:10:58.106Z,1009.41
2019-04-25T09:11:28.174Z,1009.43
2019-04-25T09:11:58.098Z,1009.42
2019-04-25T09:12:28.204Z,1009.39
2019-04-25T09:13:28.168Z,1009.39
2019-04-25T09:14:01.119Z,1009.36
2019-04-25T09:14:28.174Z,1009.39
2019-04-25T09:14:58.117Z,1009.35
2019-04-25T09:15:58.100Z,1009.34
2019-04-25T09:16:28.175Z,1009.34
2019-04-25T09:16:58.119Z,1009.34
2019-04-25T09:17:28.166Z,1009.31
2019-04-25T09:18:28.180Z,1009.32
2019-04-25T09:18:58.127Z,1009.35
2019-04-25T09:19:28.204Z,1009.34
2019-04-25T09:19:58.112Z,1009.35
2019-04-25T09:20:58.102Z,1009.36
2019-04-25T09:21:28.172Z,1009.35
2019-04-25T09:21:58.116Z,1009.36
2019-04-25T09:22:28.158Z,1009.34
2019-04-25T09:23:29.190Z,1009.28
2019-04-25T09:23:58.112Z,1009.24
2019-04-25T09:24:31.182Z,1009.20
2019-04-25T09:24:58.104Z,1009.21
2019-04-25T09:25:58.119Z,1009.18
2019-04-25T09:26:28.173Z,1009.17
2019-04-25T09:26:58.113Z,1009.21
2019-04-25T09:27:28.171Z,1009.17
2019-04-25T09:28:28.184Z,1009.19
2019-04-25T09:28:58.148Z,1009.19
2019-04-25T09:29:28.179Z,1009.22
2019-04-25T09:29:58.117Z,1009.17
2019-04-25T09:30:58.141Z,1009.21
2019-04-25T09:31:28.196Z,1009.22
2019-04-25T09:31:58.118Z,1009.20
2019-04-25T09:32:28.166Z,1009.17
2019-04-25T09:33:28.166Z,1009.16
2019-04-25T09:33:59.332Z,1009.16
2019-04-25T09:34:28.185Z,1009.13
2019-04-25T09:35:03.658Z,1009.12
2019-04-25T09:35:58.123Z,1009.11
2019-04-25T09:36:28.174Z,1009.08
2019-04-25T09:36:58.108Z,1009.10
2019-04-25T09:37:28.172Z,1009.08
2019-04-25T09:38:28.185Z,1009.08
2019-04-25T09:38:58.122Z,1009.07
2019-04-25T09:39:28.172Z,1009.08
2019-04-25T09:39:58.122Z,1009.07
2019-04-25T09:40:58.156Z,1009.05
2019-04-25T09:41:28.179Z,1008.99
2019-04-25T09:41:58.116Z,1009.01
2019-04-25T09:42:28.177Z,1008.99
2019-04-25T09:43:28.181Z,1008.97
2019-04-25T09:43:58.125Z,1008.95
2019-04-25T09:44:29.170Z,1008.94
2019-04-25T09:44:58.105Z,1008.92
2019-04-25T09:45:58.143Z,1008.97
2019-04-25T09:46:28.173Z,1008.95
2019-04-25T09:46:58.115Z,1008.97
2019-04-25T09:47:28.449Z,1008.95
2019-04-25T09:47:58.108Z,1008.98
2019-04-25T09:48:58.125Z,1008.96
2019-04-25T09:49:28.185Z,1008.96
2019-04-25T09:49:58.122Z,1008.96
2019-04-25T09:50:28.180Z,1008.96
2019-04-25T09:51:28.178Z,1008.95
2019-04-25T09:51:58.133Z,1008.96
2019-04-25T09:52:28.180Z,1008.93
2019-04-25T09:52:58.121Z,1008.94
2019-04-25T09:53:58.105Z,1008.94
2019-04-25T09:54:28.179Z,1008.94
2019-04-25T09:54:59.189Z,1008.91
2019-04-25T09:55:28.171Z,1008.89
2019-04-25T09:56:02.143Z,1008.88
2019-04-25T09:56:28.217Z,1008.87
2019-04-25T09:56:58.113Z,1008.89
2019-04-25T09:57:28.173Z,1008.87
2019-04-25T09:57:58.106Z,1008.86
2019-04-25T09:58:28.180Z,1008.87
2019-04-25T09:58:58.117Z,1008.85
2019-04-25T09:59:31.173Z,1008.85
2019-04-25T09:59:58.114Z,1008.86
2019-04-25T10:00:28.173Z,1008.86
2019-04-25T10:00:58.118Z,1008.84
2019-04-25T10:01:58.311Z,1008.84
2019-04-25T10:02:28.221Z,1008.84
2019-04-25T10:02:58.113Z,1008.83
2019-04-25T10:03:28.187Z,1008.81
2019-04-25T10:04:28.224Z,1008.82
2019-04-25T10:04:58.121Z,1008.80
2019-04-25T10:05:29.196Z,1008.81
2019-04-25T10:05:58.118Z,1008.83
2019-04-25T10:06:58.109Z,1008.80
2019-04-25T10:07:28.187Z,1008.83
2019-04-25T10:07:58.128Z,1008.80
2019-04-25T10:08:28.192Z,1008.81
2019-04-25T10:09:28.179Z,1008.79
2019-04-25T10:09:58.114Z,1008.76
2019-04-25T10:10:28.185Z,1008.77
2019-04-25T10:10:58.127Z,1008.72
2019-04-25T10:11:58.655Z,1008.75
2019-04-25T10:12:28.185Z,1008.72
2019-04-25T10:12:58.141Z,1008.76
2019-04-25T10:13:28.203Z,1008.78
2019-04-25T10:14:28.190Z,1008.74
2019-04-25T10:14:58.115Z,1008.75
2019-04-25T10:15:28.175Z,1008.72
2019-04-25T10:15:59.165Z,1008.70
2019-04-25T10:17:01.153Z,1008.69
2019-04-25T10:17:28.181Z,1008.72
2019-04-25T10:17:58.113Z,1008.72
2019-04-25T10:18:28.175Z,1008.69
2019-04-25T10:19:28.183Z,1008.68
2019-04-25T10:19:58.129Z,1008.67
2019-04-25T10:20:28.176Z,1008.67
2019-04-25T10:20:58.158Z,1008.69
2019-04-25T10:21:58.113Z,1008.65
2019-04-25T10:22:28.186Z,1008.63
2019-04-25T10:22:58.121Z,1008.62
2019-04-25T10:23:28.209Z,1008.59
2019-04-25T10:24:28.188Z,1008.57
2019-04-25T10:25:01.125Z,1008.57
2019-04-25T10:25:28.192Z,1008.54
2019-04-25T10:25:58.133Z,1008.52
2019-04-25T10:26:58.127Z,1008.52
2019-04-25T10:27:32.257Z,1008.52
2019-04-25T10:27:58.121Z,1008.51
2019-04-25T10:28:28.182Z,1008.47
2019-04-25T10:29:42.143Z,1008.52
2019-04-25T10:29:59.123Z,1008.53
2019-04-25T10:30:28.193Z,1008.53
2019-04-25T10:30:58.160Z,1008.54
2019-04-25T10:31:58.121Z,1008.54
2019-04-25T10:32:28.240Z,1008.54
2019-04-25T10:32:58.127Z,1008.52
2019-04-25T10:33:28.193Z,1008.53
2019-04-25T10:34:28.182Z,1008.54
2019-04-25T10:34:58.124Z,1008.53
2019-04-25T10:35:28.206Z,1008.53
2019-04-25T10:36:04.178Z,1008.52
2019-04-25T10:36:28.199Z,1008.54
2019-04-25T10:36:59.284Z,1008.52
2019-04-25T10:37:28.193Z,1008.55
2019-04-25T10:38:03.512Z,1008.51
2019-04-25T10:38:28.185Z,1008.54
2019-04-25T10:39:28.225Z,1008.52
2019-04-25T10:39:58.130Z,1008.52
2019-04-25T10:40:28.192Z,1008.51
2019-04-25T10:40:58.122Z,1008.52
2019-04-25T10:41:28.192Z,1008.53
2019-04-25T10:41:58.288Z,1008.53
2019-04-25T10:42:28.193Z,1008.52
2019-04-25T10:42:58.134Z,1008.51
2019-04-25T10:43:28.186Z,1008.48
2019-04-25T10:43:58.130Z,1008.52
2019-04-25T10:44:28.182Z,1008.51
2019-04-25T10:44:58.125Z,1008.52
2019-04-25T10:45:28.200Z,1008.51
2019-04-25T10:45:58.129Z,1008.51
2019-04-25T10:46:28.470Z,1008.51
2019-04-25T10:46:58.136Z,1008.49
2019-04-25T10:47:29.501Z,1008.50
2019-04-25T10:47:58.540Z,1008.48
2019-04-25T10:48:31.128Z,1008.49
2019-04-25T10:48:58.127Z,1008.50
2019-04-25T10:49:28.196Z,1008.50
2019-04-25T10:50:00.121Z,1008.50
2019-04-25T10:50:28.181Z,1008.49
2019-04-25T10:50:58.130Z,1008.47
2019-04-25T10:51:28.222Z,1008.46
2019-04-25T10:51:58.127Z,1008.42
2019-04-25T10:52:28.186Z,1008.43
2019-04-25T10:52:58.136Z,1008.41
2019-04-25T10:53:28.194Z,1008.45
2019-04-25T10:53:58.145Z,1008.39
2019-04-25T10:54:28.180Z,1008.41
2019-04-25T10:54:58.138Z,1008.42
2019-04-25T10:55:28.202Z,1008.43
2019-04-25T10:55:58.127Z,1008.41
2019-04-25T10:56:28.212Z,1008.41
2019-04-25T10:56:58.140Z,1008.44
2019-04-25T10:57:28.231Z,1008.44
2019-04-25T10:57:59.159Z,1008.44
2019-04-25T10:58:28.223Z,1008.43
2019-04-25T10:59:28.186Z,1008.43
2019-04-25T11:00:07.333Z,1008.42
2019-04-25T11:00:28.195Z,1008.39
2019-04-25T11:00:58.122Z,1008.41
2019-04-25T11:01:28.200Z,1008.39
2019-04-25T11:01:58.143Z,1008.40
2019-04-25T11:02:28.190Z,1008.39
2019-04-25T11:02:58.128Z,1008.38
2019-04-25T11:03:28.231Z,1008.38
2019-04-25T11:03:58.128Z,1008.38
2019-04-25T11:04:28.187Z,1008.39
2019-04-25T11:04:58.140Z,1008.36
2019-04-25T11:05:28.196Z,1008.36
2019-04-25T11:05:58.144Z,1008.36
2019-04-25T11:06:28.202Z,1008.31
2019-04-25T11:06:58.129Z,1008.32
2019-04-25T11:07:28.190Z,1008.27
2019-04-25T11:07:58.137Z,1008.31
2019-04-25T11:08:29.228Z,1008.28
2019-04-25T11:08:59.400Z,1008.29
2019-04-25T11:09:31.105Z,1008.25
2019-04-25T11:09:58.138Z,1008.29
2019-04-25T11:10:28.198Z,1008.29
2019-04-25T11:10:58.142Z,1008.24
2019-04-25T11:11:28.210Z,1008.27
2019-04-25T11:11:58.144Z,1008.27
2019-04-25T11:12:28.204Z,1008.28
2019-04-25T11:12:58.134Z,1008.26
2019-04-25T11:13:28.201Z,1008.26
2019-04-25T11:13:58.134Z,1008.26
2019-04-25T11:14:28.200Z,1008.29
2019-04-25T11:14:58.141Z,1008.28
2019-04-25T11:15:28.195Z,1008.29
2019-04-25T11:15:59.132Z,1008.23
2019-04-25T11:16:28.212Z,1008.26
2019-04-25T11:16:58.140Z,1008.22
2019-04-25T11:17:28.198Z,1008.23
2019-04-25T11:17:58.142Z,1008.23
2019-04-25T11:18:28.184Z,1008.23
2019-04-25T11:18:59.250Z,1008.21
2019-04-25T11:19:28.191Z,1008.23
2019-04-25T11:20:01.101Z,1008.20
2019-04-25T11:20:28.200Z,1008.20
2019-04-25T11:20:58.982Z,1008.17
2019-04-25T11:21:28.218Z,1008.17
2019-04-25T11:21:58.148Z,1008.16
2019-04-25T11:22:28.208Z,1008.14
2019-04-25T11:22:58.146Z,1008.13
2019-04-25T11:23:28.200Z,1008.13
2019-04-25T11:23:58.159Z,1008.11
2019-04-25T11:24:28.195Z,1008.10
2019-04-25T11:24:58.141Z,1008.10
2019-04-25T11:25:28.211Z,1008.06
2019-04-25T11:25:58.138Z,1008.09
2019-04-25T11:26:28.202Z,1008.05
2019-04-25T11:26:58.154Z,1008.07
2019-04-25T11:27:28.202Z,1008.05
2019-04-25T11:27:58.137Z,1008.06
2019-04-25T11:28:28.212Z,1008.07
2019-04-25T11:28:58.601Z,1008.06
2019-04-25T11:29:29.228Z,1008.05
2019-04-25T11:30:10.566Z,1008.01
2019-04-25T11:30:31.611Z,1008.02
2019-04-25T11:30:59.137Z,1008.01
2019-04-25T11:31:28.205Z,1008.02
2019-04-25T11:32:28.206Z,1008.02
2019-04-25T11:32:59.129Z,1008.04
2019-04-25T11:33:28.203Z,1008.02
2019-04-25T11:33:58.143Z,1008.03
2019-04-25T11:34:59.667Z,1008.03
2019-04-25T11:35:28.201Z,1008.01
2019-04-25T11:35:58.180Z,1008.00
2019-04-25T11:36:28.197Z,1008.00
2019-04-25T11:37:28.239Z,1007.98
2019-04-25T11:37:58.146Z,1007.97
2019-04-25T11:38:30.788Z,1007.96
2019-04-25T11:38:58.152Z,1007.94
2019-04-25T11:39:28.257Z,1007.93
2019-04-25T11:39:59.638Z,1007.95
2019-04-25T11:40:28.209Z,1007.94
2019-04-25T11:41:03.851Z,1007.92
2019-04-25T11:41:28.207Z,1007.91
2019-04-25T11:41:58.135Z,1007.94
2019-04-25T11:42:28.414Z,1007.93
2019-04-25T11:42:58.148Z,1007.93
2019-04-25T11:43:28.211Z,1007.93
2019-04-25T11:44:00.305Z,1007.91
2019-04-25T11:44:28.323Z,1007.92
2019-04-25T11:44:58.149Z,1007.94
2019-04-25T11:45:28.218Z,1007.91
2019-04-25T11:45:59.145Z,1007.92
2019-04-25T11:46:28.202Z,1007.91
2019-04-25T11:46:58.826Z,1007.91
2019-04-25T11:47:28.201Z,1007.88
2019-04-25T11:47:58.154Z,1007.83
2019-04-25T11:48:28.211Z,1007.85
2019-04-25T11:48:58.148Z,1007.87
2019-04-25T11:49:28.218Z,1007.88
2019-04-25T11:49:58.172Z,1007.87
2019-04-25T11:50:29.203Z,1007.85
2019-04-25T11:50:58.143Z,1007.81
2019-04-25T11:51:31.108Z,1007.83
2019-04-25T11:51:58.161Z,1007.78
2019-04-25T11:52:35.115Z,1007.81
2019-04-25T11:52:58.837Z,1007.85
2019-04-25T11:53:28.219Z,1007.82
2019-04-25T11:53:58.147Z,1007.80
2019-04-25T11:54:28.212Z,1007.83
2019-04-25T11:54:58.191Z,1007.81
2019-04-25T11:55:28.214Z,1007.79
2019-04-25T11:55:58.139Z,1007.83
2019-04-25T11:56:28.214Z,1007.82
2019-04-25T11:56:58.155Z,1007.84
2019-04-25T11:57:28.220Z,1007.85
2019-04-25T11:57:58.158Z,1007.83
2019-04-25T11:58:28.210Z,1007.84
2019-04-25T11:58:58.153Z,1007.82
2019-04-25T11:59:28.224Z,1007.86
2019-04-25T11:59:58.145Z,1007.81
2019-04-25T12:00:28.220Z,1007.78
2019-04-25T12:01:00.149Z,1007.79
2019-04-25T12:01:28.230Z,1007.80
2019-04-25T12:02:28.201Z,1007.80
2019-04-25T12:02:58.151Z,1007.79
2019-04-25T12:03:28.290Z,1007.76
2019-04-25T12:03:58.183Z,1007.81
2019-04-25T12:04:28.217Z,1007.82
2019-04-25T12:04:58.192Z,1007.83
2019-04-25T12:05:28.204Z,1007.82
2019-04-25T12:05:58.151Z,1007.82
2019-04-25T12:06:28.210Z,1007.80
2019-04-25T12:06:58.158Z,1007.81
2019-04-25T12:07:28.210Z,1007.78
2019-04-25T12:07:58.157Z,1007.79
2019-04-25T12:08:28.212Z,1007.78
2019-04-25T12:08:58.178Z,1007.77
2019-04-25T12:09:28.209Z,1007.81
2019-04-25T12:09:58.184Z,1007.79
2019-04-25T12:10:29.264Z,1007.80
2019-04-25T12:10:58.165Z,1007.82
2019-04-25T12:11:29.428Z,1007.78
2019-04-25T12:11:58.157Z,1007.80
2019-04-25T12:12:31.358Z,1007.80
2019-04-25T12:12:59.154Z,1007.79
2019-04-25T12:13:29.456Z,1007.81
2019-04-25T12:13:58.146Z,1007.81
2019-04-25T12:14:28.223Z,1007.79
2019-04-25T12:14:58.164Z,1007.77
2019-04-25T12:15:28.213Z,1007.78
2019-04-25T12:15:58.519Z,1007.78
2019-04-25T12:16:28.233Z,1007.78
2019-04-25T12:16:58.146Z,1007.79
2019-04-25T12:17:28.233Z,1007.78
2019-04-25T12:17:59.155Z,1007.79
2019-04-25T12:18:28.212Z,1007.76
2019-04-25T12:18:58.203Z,1007.76
2019-04-25T12:19:59.162Z,1007.78
2019-04-25T12:20:28.221Z,1007.78
2019-04-25T12:21:00.163Z,1007.76
2019-04-25T12:21:28.215Z,1007.76
2019-04-25T12:22:00.235Z,1007.73
2019-04-25T12:22:28.226Z,1007.73
2019-04-25T12:23:08.600Z,1007.73
2019-04-25T12:23:28.220Z,1007.74
2019-04-25T12:23:58.180Z,1007.73
2019-04-25T12:24:28.245Z,1007.75
2019-04-25T12:24:58.162Z,1007.73
2019-04-25T12:25:28.230Z,1007.71
2019-04-25T12:25:59.164Z,1007.72
2019-04-25T12:26:28.216Z,1007.75
2019-04-25T12:26:58.159Z,1007.72
2019-04-25T12:27:29.262Z,1007.71
2019-04-25T12:27:58.149Z,1007.69
2019-04-25T12:28:28.221Z,1007.72
2019-04-25T12:28:58.176Z,1007.67
2019-04-25T12:29:28.218Z,1007.70
2019-04-25T12:29:59.501Z,1007.73
2019-04-25T12:30:37.850Z,1007.72
2019-04-25T12:30:59.153Z,1007.70
2019-04-25T12:31:28.211Z,1007.70
2019-04-25T12:31:58.625Z,1007.69
2019-04-25T12:32:29.213Z,1007.73
2019-04-25T12:32:58.156Z,1007.68
2019-04-25T12:33:31.123Z,1007.67
2019-04-25T12:33:59.154Z,1007.72
2019-04-25T12:34:29.335Z,1007.70
2019-04-25T12:34:58.161Z,1007.67
2019-04-25T12:35:28.229Z,1007.69
2019-04-25T12:35:58.230Z,1007.68
2019-04-25T12:36:28.248Z,1007.68
2019-04-25T12:36:59.888Z,1007.69
2019-04-25T12:37:28.222Z,1007.70
2019-04-25T12:37:58.162Z,1007.70
2019-04-25T12:38:28.229Z,1007.69
2019-04-25T12:38:58.777Z,1007.70
2019-04-25T12:39:28.219Z,1007.69
2019-04-25T12:39:58.167Z,1007.69
2019-04-25T12:40:28.263Z,1007.68
2019-04-25T12:40:58.164Z,1007.71
2019-04-25T12:41:28.231Z,1007.68
2019-04-25T12:41:59.175Z,1007.71
2019-04-25T12:42:28.236Z,1007.66
2019-04-25T12:42:59.299Z,1007.65
2019-04-25T12:43:28.220Z,1007.67
2019-04-25T12:44:01.121Z,1007.64
2019-04-25T12:44:28.217Z,1007.65
2019-04-25T12:44:59.161Z,1007.63
2019-04-25T12:45:28.231Z,1007.65
2019-04-25T12:45:58.339Z,1007.64
2019-04-25T12:46:28.242Z,1007.64
2019-04-25T12:46:58.187Z,1007.64
2019-04-25T12:47:28.229Z,1007.60
2019-04-25T12:48:00.169Z,1007.61
2019-04-25T12:48:28.221Z,1007.61
2019-04-25T12:48:59.149Z,1007.58
2019-04-25T12:49:28.233Z,1007.58
2019-04-25T12:49:59.161Z,1007.55
2019-04-25T12:50:28.234Z,1007.56
2019-04-25T12:50:58.170Z,1007.55
2019-04-25T12:51:28.229Z,1007.57
2019-04-25T12:51:58.742Z,1007.57
2019-04-25T12:52:28.221Z,1007.58
2019-04-25T12:52:59.162Z,1007.59
2019-04-25T12:53:29.222Z,1007.58
2019-04-25T12:53:58.165Z,1007.61
2019-04-25T12:54:31.144Z,1007.62
2019-04-25T12:55:00.161Z,1007.62
2019-04-25T12:55:29.518Z,1007.63
2019-04-25T12:55:58.175Z,1007.63
2019-04-25T12:56:28.227Z,1007.63
2019-04-25T12:56:59.863Z,1007.63
2019-04-25T12:57:28.231Z,1007.65
2019-04-25T12:57:59.159Z,1007.67
2019-04-25T12:58:28.229Z,1007.68
2019-04-25T12:58:58.167Z,1007.67
2019-04-25T12:59:28.227Z,1007.66
2019-04-25T12:59:59.157Z,1007.65
2019-04-25T13:00:28.241Z,1007.65
2019-04-25T13:01:01.829Z,1007.64
2019-04-25T13:01:28.234Z,1007.66
2019-04-25T13:02:00.114Z,1007.64
2019-04-25T13:02:28.228Z,1007.63
2019-04-25T13:02:58.737Z,1007.66
2019-04-25T13:03:28.229Z,1007.66
2019-04-25T13:03:59.277Z,1007.63
2019-04-25T13:04:28.243Z,1007.63
2019-04-25T13:05:01.513Z,1007.68
2019-04-25T13:05:28.231Z,1007.68
2019-04-25T13:05:58.394Z,1007.65
2019-04-25T13:06:28.229Z,1007.65
2019-04-25T13:06:59.169Z,1007.67
2019-04-25T13:07:28.282Z,1007.68
2019-04-25T13:08:01.187Z,1007.67
2019-04-25T13:08:28.235Z,1007.65
2019-04-25T13:08:59.313Z,1007.66
2019-04-25T13:09:28.234Z,1007.65
2019-04-25T13:09:58.175Z,1007.66
2019-04-25T13:10:28.229Z,1007.66
2019-04-25T13:11:08.327Z,1007.64
2019-04-25T13:11:28.231Z,1007.64
2019-04-25T13:11:58.188Z,1007.63
2019-04-25T13:12:28.272Z,1007.64
2019-04-25T13:12:58.169Z,1007.64
2019-04-25T13:13:28.241Z,1007.68
2019-04-25T13:13:58.175Z,1007.67
2019-04-25T13:14:29.234Z,1007.63
2019-04-25T13:14:58.169Z,1007.64
2019-04-25T13:15:31.139Z,1007.64
2019-04-25T13:15:58.165Z,1007.64
2019-04-25T13:16:28.235Z,1007.62
2019-04-25T13:16:58.262Z,1007.64
2019-04-25T13:17:29.260Z,1007.62
2019-04-25T13:17:58.429Z,1007.64
2019-04-25T13:18:28.233Z,1007.63
2019-04-25T13:19:14.732Z,1007.61
2019-04-25T13:19:28.238Z,1007.63
2019-04-25T13:19:58.215Z,1007.62
2019-04-25T13:20:28.225Z,1007.59
2019-04-25T13:21:00.502Z,1007.60
2019-04-25T13:21:28.235Z,1007.61
2019-04-25T13:21:59.171Z,1007.61
2019-04-25T13:22:58.443Z,1007.57
2019-04-25T13:23:28.234Z,1007.57
2019-04-25T13:23:59.171Z,1007.58
2019-04-25T13:24:28.244Z,1007.59
2019-04-25T13:25:28.230Z,1007.59
2019-04-25T13:26:01.612Z,1007.55
2019-04-25T13:26:28.255Z,1007.57
2019-04-25T13:26:58.530Z,1007.56
2019-04-25T13:28:00.185Z,1007.61
2019-04-25T13:28:28.388Z,1007.59
2019-04-25T13:28:58.999Z,1007.61
2019-04-25T13:29:28.239Z,1007.63
2019-04-25T13:29:59.180Z,1007.63
2019-04-25T13:30:28.253Z,1007.60
2019-04-25T13:31:07.400Z,1007.60
2019-04-25T13:31:28.235Z,1007.58
2019-04-25T13:31:58.572Z,1007.59
2019-04-25T13:32:28.233Z,1007.61
2019-04-25T13:32:59.172Z,1007.63
2019-04-25T13:33:28.233Z,1007.62
2019-04-25T13:33:59.177Z,1007.56
2019-04-25T13:34:36.224Z,1007.53
2019-04-25T13:34:59.166Z,1007.56
2019-04-25T13:35:59.178Z,1007.58
2019-04-25T13:36:31.162Z,1007.63
2019-04-25T13:37:00.987Z,1007.64
2019-04-25T13:37:28.232Z,1007.66
2019-04-25T13:38:28.237Z,1007.67
2019-04-25T13:38:59.185Z,1007.61
2019-04-25T13:39:28.250Z,1007.58
2019-04-25T13:40:00.543Z,1007.61
2019-04-25T13:40:59.397Z,1007.54
2019-04-25T13:41:29.227Z,1007.51
2019-04-25T13:42:02.368Z,1007.52
2019-04-25T13:42:28.241Z,1007.52
2019-04-25T13:43:28.257Z,1007.53
2019-04-25T13:43:59.183Z,1007.52
2019-04-25T13:44:28.241Z,1007.50
2019-04-25T13:44:58.182Z,1007.52
2019-04-25T13:45:59.192Z,1007.49
2019-04-25T13:46:29.254Z,1007.46
2019-04-25T13:47:01.274Z,1007.44
2019-04-25T13:47:31.920Z,1007.44
2019-04-25T13:48:30.284Z,1007.44
2019-04-25T13:48:58.181Z,1007.47
2019-04-25T13:49:30.248Z,1007.48
2019-04-25T13:49:58.176Z,1007.50
2019-04-25T13:50:58.185Z,1007.53
2019-04-25T13:51:29.246Z,1007.52
2019-04-25T13:51:58.176Z,1007.53
2019-04-25T13:52:28.922Z,1007.52
2019-04-25T13:53:29.485Z,1007.47
2019-04-25T13:53:58.207Z,1007.50
2019-04-25T13:54:28.668Z,1007.48
2019-04-25T13:54:58.201Z,1007.46
2019-04-25T13:55:58.193Z,1007.45
2019-04-25T13:56:29.274Z,1007.51
2019-04-25T13:56:58.187Z,1007.50
2019-04-25T13:57:31.157Z,1007.51
2019-04-25T13:58:35.179Z,1007.53
2019-04-25T13:58:58.200Z,1007.54
2019-04-25T13:59:29.269Z,1007.54
2019-04-25T13:59:58.406Z,1007.54
2019-04-25T14:00:58.180Z,1007.54
2019-04-25T14:01:29.664Z,1007.52
2019-04-25T14:01:59.224Z,1007.54
2019-04-25T14:02:28.861Z,1007.55
2019-04-25T14:03:29.396Z,1007.55
2019-04-25T14:03:58.342Z,1007.55
2019-04-25T14:04:29.448Z,1007.54
2019-04-25T14:04:58.184Z,1007.54
2019-04-25T14:05:58.187Z,1007.55
2019-04-25T14:06:29.250Z,1007.55
2019-04-25T14:06:59.326Z,1007.55
2019-04-25T14:07:29.558Z,1007.53
2019-04-25T14:08:28.250Z,1007.53
2019-04-25T14:08:58.182Z,1007.54
2019-04-25T14:09:30.264Z,1007.52
2019-04-25T14:09:58.213Z,1007.51
2019-04-25T14:10:58.190Z,1007.49
2019-04-25T14:11:30.108Z,1007.50
2019-04-25T14:11:58.192Z,1007.50
2019-04-25T14:12:31.988Z,1007.49
2019-04-25T14:13:29.839Z,1007.50
2019-04-25T14:13:58.204Z,1007.49
2019-04-25T14:14:28.264Z,1007.48
2019-04-25T14:14:58.188Z,1007.49
2019-04-25T14:15:58.189Z,1007.49
2019-04-25T14:16:28.304Z,1007.49
2019-04-25T14:16:58.194Z,1007.47
2019-04-25T14:17:29.258Z,1007.47
2019-04-25T14:18:31.537Z,1007.46
2019-04-25T14:18:58.200Z,1007.47
2019-04-25T14:19:29.342Z,1007.48
2019-04-25T14:19:58.189Z,1007.47
2019-04-25T14:20:58.184Z,1007.54
2019-04-25T14:21:31.355Z,1007.53
2019-04-25T14:21:58.199Z,1007.53
2019-04-25T14:22:29.248Z,1007.52
2019-04-25T14:22:58.200Z,1007.52
2019-04-25T14:23:29.433Z,1007.53
2019-04-25T14:23:58.199Z,1007.52
2019-04-25T14:24:35.663Z,1007.48
2019-04-25T14:24:58.200Z,1007.45
2019-04-25T14:25:58.196Z,1007.45
2019-04-25T14:26:28.949Z,1007.45
2019-04-25T14:26:58.188Z,1007.45
2019-04-25T14:27:30.103Z,1007.48
2019-04-25T14:28:35.207Z,1007.47
2019-04-25T14:29:01.192Z,1007.49
2019-04-25T14:29:29.312Z,1007.49
2019-04-25T14:29:58.194Z,1007.46
2019-04-25T14:30:28.404Z,1007.44
2019-04-25T14:30:58.196Z,1007.44
2019-04-25T14:31:42.231Z,1007.44
2019-04-25T14:31:58.193Z,1007.43
2019-04-25T14:32:31.259Z,1007.45
2019-04-25T14:32:58.192Z,1007.42
2019-04-25T14:33:30.649Z,1007.41
2019-04-25T14:33:58.192Z,1007.42
2019-04-25T14:34:29.888Z,1007.42
2019-04-25T14:34:58.215Z,1007.41
2019-04-25T14:35:29.028Z,1007.42
2019-04-25T14:35:58.215Z,1007.42
2019-04-25T14:36:31.250Z,1007.41
2019-04-25T14:36:58.223Z,1007.42
2019-04-25T14:37:39.166Z,1007.40
2019-04-25T14:37:58.188Z,1007.39
2019-04-25T14:38:29.893Z,1007.41
2019-04-25T14:38:58.240Z,1007.41
2019-04-25T14:39:31.128Z,1007.37
2019-04-25T14:39:58.228Z,1007.37
2019-04-25T14:40:28.644Z,1007.35
2019-04-25T14:40:58.203Z,1007.38
2019-04-25T14:41:30.182Z,1007.36
2019-04-25T14:41:58.198Z,1007.38
2019-04-25T14:42:29.478Z,1007.39
2019-04-25T14:42:58.210Z,1007.36
2019-04-25T14:43:28.781Z,1007.36
2019-04-25T14:43:58.219Z,1007.35
2019-04-25T14:44:28.608Z,1007.38
2019-04-25T14:44:58.189Z,1007.38
2019-04-25T14:45:40.226Z,1007.43
2019-04-25T14:45:58.199Z,1007.42
2019-04-25T14:46:29.914Z,1007.42